Egelantiersgracht — PDWT — position and weather

sailwx.info

Track history (hours):
 
Tides and Currents Weather Stations Pressure Air Temp Water Temp Dewpoint Dewpoint Depression Visibility Wind Speed Wind Dir Waves Ship Positions

Egelantiersgracht

Last reported at 2018-Feb-24 22:24 UTC. Time now 2018-Feb-24 23:36 UTC.
Position N 43°41' E 007°19'.

Length 136 m; beam 19 m; draft 9 m.

Type: Cargo ship. MMSI: 244266000.

Date/timePositionNaut miles runAvg speedWind from/ knotsBaromVisibWave heightAir tempDewpointWater temp
2018-Feb-24 22:24N 43°41' E 007°19'2 4.9
2018-Feb-24 21:59N 43°39' E 007°19'4 8.6
2018-Feb-24 21:30N 43°36' E 007°17'713.1
2018-Feb-24 21:00N 43°30' E 007°13'713.3
2018-Feb-24 20:30N 43°24' E 007°08'713.0
2018-Feb-24 20:00N 43°18' E 007°04'28413.3
2018-Feb-23 22:37N 39°22' E 003°35'214.1
2018-Feb-23 22:27N 39°21' E 003°32'2714.0
2018-Feb-23 20:30N 39°06' E 003°02'1210.9
2018-Feb-23 19:24N 39°12' E 002°49'614.2
2018-Feb-23 19:00N 39°17' E 002°46'714.3
2018-Feb-23 18:30N 39°24' E 002°43'714.1
2018-Feb-23 18:00N 39°30' E 002°40'3 5.9
2018-Feb-23 17:30N 39°33' E 002°38'0 0.0
2018-Feb-23 16:59N 39°33' E 002°38'0 0.0
2018-Feb-23 16:29N 39°33' E 002°38'0 0.0
2018-Feb-23 15:58N 39°33' E 002°38'0 0.0
2018-Feb-23 15:28N 39°33' E 002°38'0 0.0
2018-Feb-23 14:58N 39°33' E 002°38'0 0.0
2018-Feb-23 14:28N 39°33' E 002°38'0 0.0
2018-Feb-23 13:58N 39°33' E 002°38'0 0.0
2018-Feb-23 13:25N 39°33' E 002°38'0 0.0
2018-Feb-23 12:58N 39°33' E 002°38'0 0.0
2018-Feb-23 12:28N 39°33' E 002°38'0 0.0
2018-Feb-23 11:58N 39°33' E 002°38'0 0.0
2018-Feb-23 11:28N 39°33' E 002°38'0 0.0
2018-Feb-23 10:58N 39°33' E 002°38'0 0.0
2018-Feb-23 10:28N 39°33' E 002°38'0 0.0
2018-Feb-23 09:58N 39°33' E 002°38'0 0.0
2018-Feb-23 09:28N 39°33' E 002°38'0 0.0
2018-Feb-23 08:58N 39°33' E 002°38'0 0.0
2018-Feb-23 08:28N 39°33' E 002°38'0 0.0
2018-Feb-23 07:58N 39°33' E 002°38'0 0.0
2018-Feb-23 07:28N 39°33' E 002°38'0 0.0
2018-Feb-23 06:58N 39°33' E 002°38'0 0.0
2018-Feb-23 06:28N 39°33' E 002°38'0 0.0
2018-Feb-23 05:58N 39°33' E 002°38'0 0.0
2018-Feb-23 05:28N 39°33' E 002°38'0 0.0
2018-Feb-23 04:58N 39°33' E 002°38'0 0.0
2018-Feb-23 04:28N 39°33' E 002°38'0 0.0
2018-Feb-23 03:58N 39°33' E 002°38'0 0.0
2018-Feb-23 03:28N 39°33' E 002°38'0 0.0
2018-Feb-23 02:58N 39°33' E 002°38'0 0.0
2018-Feb-23 02:28N 39°33' E 002°38'0 0.0
2018-Feb-23 01:58N 39°33' E 002°38'0 0.0
2018-Feb-23 01:28N 39°33' E 002°38'0 0.0
2018-Feb-23 00:58N 39°33' E 002°38'0 0.0
2018-Feb-23 00:28N 39°33' E 002°38'0 0.0
2018-Feb-22 23:58N 39°33' E 002°38'0 0.0
2018-Feb-22 23:28N 39°33' E 002°38'0 0.0
2018-Feb-22 22:58N 39°33' E 002°38'0 0.0
2018-Feb-22 22:28N 39°33' E 002°38'0 0.0
2018-Feb-22 22:01N 39°33' E 002°38'0 0.0
2018-Feb-22 21:31N 39°33' E 002°38'0 0.0
2018-Feb-22 21:00N 39°33' E 002°38'0 0.0
2018-Feb-22 20:30N 39°33' E 002°38'0 0.0
2018-Feb-22 20:00N 39°33' E 002°38'0 0.0
2018-Feb-22 19:30N 39°33' E 002°38'0 0.0
2018-Feb-22 19:00N 39°33' E 002°38'0 0.0
2018-Feb-22 18:30N 39°33' E 002°38'0 0.0
2018-Feb-22 18:00N 39°33' E 002°38'0 0.0
2018-Feb-22 17:30N 39°33' E 002°38'0 0.0
2018-Feb-22 17:00N 39°33' E 002°38'0 0.0
2018-Feb-22 16:30N 39°33' E 002°38'0 0.0
2018-Feb-22 16:00N 39°33' E 002°38'0 0.0
2018-Feb-22 15:30N 39°33' E 002°38'1 1.2
2018-Feb-22 15:00N 39°33' E 002°38'2 3.7
2018-Feb-22 14:30N 39°31' E 002°38'611.5
2018-Feb-22 14:00N 39°26' E 002°34'612.7
2018-Feb-22 13:30N 39°21' E 002°29'713.2
2018-Feb-22 13:00N 39°16' E 002°24'19013.2
2018-Feb-21 22:36N 37°15' W 000°41'112.7
2018-Feb-21 22:30N 37°14' W 000°43'1512.5
2018-Feb-21 21:19N 37°05' W 000°58'21213.5
2018-Feb-21 05:33N 36°03' W 005°10'213.3
2018-Feb-21 05:24N 36°03' W 005°12'615.2
2018-Feb-21 05:00N 36°05' W 005°20'5 9.0
2018-Feb-21 04:30N 36°09' W 005°23'1 0.3
2018-Feb-21 02:24N 36°08' W 005°22'0 0.0
2018-Feb-20 21:47N 36°08' W 005°22'0 0.0
2018-Feb-20 21:26N 36°08' W 005°22'0 0.0
2018-Feb-20 06:48N 36°09' W 005°22'1 2.6
2018-Feb-20 06:27N 36°08' W 005°23'3 6.2
2018-Feb-20 06:00N 36°05' W 005°22'610.2
2018-Feb-20 05:27N 36°00' W 005°20'512.2
2018-Feb-20 05:00N 35°58' W 005°26'17412.5
2018-Feb-19 15:03N 36°29' W 008°59'4711.5
2018-Feb-19 10:55N 37°04' W 009°38'512.7
2018-Feb-19 10:30N 37°09' W 009°40'712.7
2018-Feb-19 09:59N 37°16' W 009°42'712.5
2018-Feb-19 09:28N 37°22' W 009°44'612.7
2018-Feb-19 09:00N 37°28' W 009°45'612.9
2018-Feb-19 08:30N 37°34' W 009°47'712.9
2018-Feb-19 08:00N 37°41' W 009°48'612.9
2018-Feb-19 07:30N 37°47' W 009°50'612.8
2018-Feb-19 07:00N 37°53' W 009°52'712.9
2018-Feb-19 06:30N 37°60' W 009°54'612.9
2018-Feb-19 06:00N 38°06' W 009°56'713.0
2018-Feb-19 05:30N 38°12' W 009°58'713.0
2018-Feb-19 05:00N 38°18' W 009°60'713.0
2018-Feb-19 04:30N 38°25' W 010°01'713.1
2018-Feb-19 04:00N 38°31' W 010°03'713.1
2018-Feb-19 03:30N 38°38' W 010°05'612.7
2018-Feb-19 03:00N 38°44' W 010°06'612.6
2018-Feb-19 02:30N 38°50' W 010°06'612.4
2018-Feb-19 02:00N 38°56' W 010°06'612.6
2018-Feb-19 01:30N 39°03' W 010°06'612.9
2018-Feb-19 01:00N 39°09' W 010°06'612.8
2018-Feb-19 00:30N 39°15' W 010°06'612.6
2018-Feb-19 00:00N 39°22' W 010°06'612.7
2018-Feb-18 23:30N 39°28' W 010°05'612.9
2018-Feb-18 23:00N 39°35' W 010°05'712.9
2018-Feb-18 22:30N 39°41' W 010°05'3812.9
2018-Feb-18 19:32N 40°19' W 010°06'112.7
2018-Feb-18 19:29N 40°20' W 010°07'25413.0
2018-Feb-18 00:00N 44°30' W 009°06'15713.1 290 / 71030.010.8 13.1 9.7 9.1
2018-Feb-17 12:00N 46°48' W 007°18'19012.6 230 / 81027.210.8 11.0 5.0 8.1
2018-Feb-16 20:52N 49°22' W 004°32'3512.2
2018-Feb-16 17:58N 49°39' W 003°45'511.6
2018-Feb-16 17:30N 49°42' W 003°37'712.1
2018-Feb-16 16:55N 49°46' W 003°28'512.4
2018-Feb-16 16:30N 49°49' W 003°21'713.2
2018-Feb-16 15:57N 49°53' W 003°12'613.5
2018-Feb-16 15:30N 49°57' W 003°06'5 9.3
2018-Feb-16 15:01N 49°59' W 002°59'815.3
2018-Feb-16 14:30N 50°02' W 002°48'816.0
2018-Feb-16 14:00N 50°04' W 002°36'2915.6
2018-Feb-16 12:08N 50°15' W 001°54'214.3
2018-Feb-16 12:00N 50°16' W 001°51'913.7
2018-Feb-16 11:22N 50°20' W 001°39'1612.0
2018-Feb-16 10:00N 50°28' W 001°16'710.7
2018-Feb-16 09:19N 50°32' W 001°07'410.3
2018-Feb-16 08:58N 50°34' W 001°02'5 9.8
2018-Feb-16 08:30N 50°38' W 001°03'0 0.1
2018-Feb-16 08:00N 50°38' W 001°03'0 0.0
2018-Feb-16 07:30N 50°38' W 001°03'0 0.0
2018-Feb-16 07:00N 50°38' W 001°03'0 0.1
2018-Feb-16 06:30N 50°38' W 001°03'0 0.0
2018-Feb-16 05:57N 50°38' W 001°03'0 0.0
2018-Feb-16 05:30N 50°38' W 001°03'0 0.3
2018-Feb-16 05:00N 50°38' W 001°03'0 0.1
2018-Feb-16 04:29N 50°38' W 001°03'0 0.0
2018-Feb-16 04:00N 50°38' W 001°03'0 0.0
2018-Feb-16 03:30N 50°38' W 001°03'0 0.0
2018-Feb-16 02:59N 50°38' W 001°03'0 0.0
2018-Feb-16 02:29N 50°38' W 001°03'0 0.0
2018-Feb-16 01:59N 50°38' W 001°03'0 0.0
2018-Feb-16 01:29N 50°38' W 001°03'0 0.0
2018-Feb-16 00:59N 50°38' W 001°03'0 0.0
2018-Feb-16 00:29N 50°38' W 001°03'0 0.3
2018-Feb-15 23:59N 50°38' W 001°03'0 0.4
2018-Feb-15 23:23N 50°38' W 001°03'0 0.2
2018-Feb-15 22:59N 50°38' W 001°03'0 0.1
2018-Feb-15 22:23N 50°38' W 001°03'0 0.0
2018-Feb-15 21:56N 50°38' W 001°03'0 0.0
2018-Feb-15 21:26N 50°38' W 001°03'0 0.0
2018-Feb-15 20:56N 50°38' W 001°03'0 0.1
2018-Feb-15 20:29N 50°38' W 001°03'0 0.0
2018-Feb-15 19:59N 50°38' W 001°03'0 0.0
2018-Feb-15 19:29N 50°38' W 001°03'0 0.0
2018-Feb-15 18:59N 50°38' W 001°03'0 0.0
2018-Feb-15 18:26N 50°38' W 001°03'0 0.0
2018-Feb-15 17:59N 50°38' W 001°03'0 0.0
2018-Feb-15 17:29N 50°38' W 001°03'0 0.1
2018-Feb-15 16:59N 50°38' W 001°03'0 0.4
2018-Feb-15 16:29N 50°38' W 001°03'0 0.1
2018-Feb-15 15:59N 50°38' W 001°03'0 0.0
2018-Feb-15 15:29N 50°38' W 001°03'0 0.0
2018-Feb-15 14:59N 50°38' W 001°03'0 0.0
2018-Feb-15 14:29N 50°38' W 001°03'0 0.0
2018-Feb-15 13:59N 50°38' W 001°03'0 0.2
2018-Feb-15 13:30N 50°38' W 001°03'2 4.6
2018-Feb-15 13:00N 50°39' W 000°60'5 9.7
2018-Feb-15 12:31N 50°43' W 001°02'510.2
2018-Feb-15 12:01N 50°46' W 001°09'510.2
2018-Feb-15 11:30N 50°47' W 001°17'4 8.5
2018-Feb-15 11:00N 50°51' W 001°20'4 8.4
2018-Feb-15 10:30N 50°53' W 001°24'1 2.4
2018-Feb-15 09:58N 50°54' W 001°26'0 0.0
2018-Feb-15 09:28N 50°54' W 001°26'0 0.0
2018-Feb-15 08:58N 50°54' W 001°26'0 0.0
2018-Feb-15 08:28N 50°54' W 001°26'0 0.0
2018-Feb-15 07:58N 50°54' W 001°26'0 0.0
2018-Feb-15 07:28N 50°54' W 001°26'0 0.0
2018-Feb-15 06:55N 50°54' W 001°26'0 0.0
2018-Feb-15 06:25N 50°54' W 001°26'0 0.0
2018-Feb-15 05:58N 50°54' W 001°26'0 0.0
2018-Feb-15 05:28N 50°54' W 001°26'0 0.0
2018-Feb-15 04:58N 50°54' W 001°26'0 0.0
2018-Feb-15 04:28N 50°54' W 001°26'0 0.0
2018-Feb-15 03:58N 50°54' W 001°26'0 0.0
2018-Feb-15 03:28N 50°54' W 001°26'0 0.0
2018-Feb-15 02:46N 50°54' W 001°26'0 0.0
2018-Feb-15 02:28N 50°54' W 001°26'0 0.0
2018-Feb-15 01:58N 50°54' W 001°26'0 0.0
2018-Feb-15 01:28N 50°54' W 001°26'0 0.0
2018-Feb-15 00:46N 50°54' W 001°26'0 0.0
2018-Feb-15 00:28N 50°54' W 001°26'0 0.0
2018-Feb-14 23:58N 50°54' W 001°26'0 0.0
2018-Feb-14 23:28N 50°54' W 001°26'0 0.0
2018-Feb-14 22:58N 50°54' W 001°26'0 0.0
2018-Feb-14 22:28N 50°54' W 001°26'  
Track history (hours):
 
Tides and Currents Weather Stations Pressure Air Temp Water Temp Dewpoint Dewpoint Depression Visibility Wind Speed Wind Dir Waves Ship Positions

Egelantiersgracht

Last reported at 2018-Feb-24 22:24 UTC. Time now 2018-Feb-24 23:36 UTC.
Position N 43°41' E 007°19'.

Length 136 m; beam 19 m; draft 9 m.

Type: Cargo ship. MMSI: 244266000.

Date/timePositionNaut miles runAvg speedWind from/ knotsBaromVisibWave heightAir tempDewpointWater temp
2018-Feb-24 22:24N 43°41' E 007°19'2 4.9
2018-Feb-24 21:59N 43°39' E 007°19'4 8.6
2018-Feb-24 21:30N 43°36' E 007°17'713.1
2018-Feb-24 21:00N 43°30' E 007°13'713.3
2018-Feb-24 20:30N 43°24' E 007°08'713.0
2018-Feb-24 20:00N 43°18' E 007°04'28413.3
2018-Feb-23 22:37N 39°22' E 003°35'214.1
2018-Feb-23 22:27N 39°21' E 003°32'2714.0
2018-Feb-23 20:30N 39°06' E 003°02'1210.9
2018-Feb-23 19:24N 39°12' E 002°49'614.2
2018-Feb-23 19:00N 39°17' E 002°46'714.3
2018-Feb-23 18:30N 39°24' E 002°43'714.1
2018-Feb-23 18:00N 39°30' E 002°40'3 5.9
2018-Feb-23 17:30N 39°33' E 002°38'0 0.0
2018-Feb-23 16:59N 39°33' E 002°38'0 0.0
2018-Feb-23 16:29N 39°33' E 002°38'0 0.0
2018-Feb-23 15:58N 39°33' E 002°38'0 0.0
2018-Feb-23 15:28N 39°33' E 002°38'0 0.0
2018-Feb-23 14:58N 39°33' E 002°38'0 0.0
2018-Feb-23 14:28N 39°33' E 002°38'0 0.0
2018-Feb-23 13:58N 39°33' E 002°38'0 0.0
2018-Feb-23 13:25N 39°33' E 002°38'0 0.0
2018-Feb-23 12:58N 39°33' E 002°38'0 0.0
2018-Feb-23 12:28N 39°33' E 002°38'0 0.0
2018-Feb-23 11:58N 39°33' E 002°38'0 0.0
2018-Feb-23 11:28N 39°33' E 002°38'0 0.0
2018-Feb-23 10:58N 39°33' E 002°38'0 0.0
2018-Feb-23 10:28N 39°33' E 002°38'0 0.0
2018-Feb-23 09:58N 39°33' E 002°38'0 0.0
2018-Feb-23 09:28N 39°33' E 002°38'0 0.0
2018-Feb-23 08:58N 39°33' E 002°38'0 0.0
2018-Feb-23 08:28N 39°33' E 002°38'0 0.0
2018-Feb-23 07:58N 39°33' E 002°38'0 0.0
2018-Feb-23 07:28N 39°33' E 002°38'0 0.0
2018-Feb-23 06:58N 39°33' E 002°38'0 0.0
2018-Feb-23 06:28N 39°33' E 002°38'0 0.0
2018-Feb-23 05:58N 39°33' E 002°38'0 0.0
2018-Feb-23 05:28N 39°33' E 002°38'0 0.0
2018-Feb-23 04:58N 39°33' E 002°38'0 0.0
2018-Feb-23 04:28N 39°33' E 002°38'0 0.0
2018-Feb-23 03:58N 39°33' E 002°38'0 0.0
2018-Feb-23 03:28N 39°33' E 002°38'0 0.0
2018-Feb-23 02:58N 39°33' E 002°38'0 0.0
2018-Feb-23 02:28N 39°33' E 002°38'0 0.0
2018-Feb-23 01:58N 39°33' E 002°38'0 0.0
2018-Feb-23 01:28N 39°33' E 002°38'0 0.0
2018-Feb-23 00:58N 39°33' E 002°38'0 0.0
2018-Feb-23 00:28N 39°33' E 002°38'0 0.0
2018-Feb-22 23:58N 39°33' E 002°38'0 0.0
2018-Feb-22 23:28N 39°33' E 002°38'0 0.0
2018-Feb-22 22:58N 39°33' E 002°38'0 0.0
2018-Feb-22 22:28N 39°33' E 002°38'0 0.0
2018-Feb-22 22:01N 39°33' E 002°38'0 0.0
2018-Feb-22 21:31N 39°33' E 002°38'0 0.0
2018-Feb-22 21:00N 39°33' E 002°38'0 0.0
2018-Feb-22 20:30N 39°33' E 002°38'0 0.0
2018-Feb-22 20:00N 39°33' E 002°38'0 0.0
2018-Feb-22 19:30N 39°33' E 002°38'0 0.0
2018-Feb-22 19:00N 39°33' E 002°38'0 0.0
2018-Feb-22 18:30N 39°33' E 002°38'0 0.0
2018-Feb-22 18:00N 39°33' E 002°38'0 0.0
2018-Feb-22 17:30N 39°33' E 002°38'0 0.0
2018-Feb-22 17:00N 39°33' E 002°38'0 0.0
2018-Feb-22 16:30N 39°33' E 002°38'0 0.0
2018-Feb-22 16:00N 39°33' E 002°38'0 0.0
2018-Feb-22 15:30N 39°33' E 002°38'1 1.2
2018-Feb-22 15:00N 39°33' E 002°38'2 3.7
2018-Feb-22 14:30N 39°31' E 002°38'611.5
2018-Feb-22 14:00N 39°26' E 002°34'612.7
2018-Feb-22 13:30N 39°21' E 002°29'713.2
2018-Feb-22 13:00N 39°16' E 002°24'19013.2
2018-Feb-21 22:36N 37°15' W 000°41'112.7
2018-Feb-21 22:30N 37°14' W 000°43'1512.5
2018-Feb-21 21:19N 37°05' W 000°58'21213.5
2018-Feb-21 05:33N 36°03' W 005°10'213.3
2018-Feb-21 05:24N 36°03' W 005°12'615.2
2018-Feb-21 05:00N 36°05' W 005°20'5 9.0
2018-Feb-21 04:30N 36°09' W 005°23'1 0.3
2018-Feb-21 02:24N 36°08' W 005°22'0 0.0
2018-Feb-20 21:47N 36°08' W 005°22'0 0.0
2018-Feb-20 21:26N 36°08' W 005°22'0 0.0
2018-Feb-20 06:48N 36°09' W 005°22'1 2.6
2018-Feb-20 06:27N 36°08' W 005°23'3 6.2
2018-Feb-20 06:00N 36°05' W 005°22'610.2
2018-Feb-20 05:27N 36°00' W 005°20'512.2
2018-Feb-20 05:00N 35°58' W 005°26'17412.5
2018-Feb-19 15:03N 36°29' W 008°59'4711.5
2018-Feb-19 10:55N 37°04' W 009°38'512.7
2018-Feb-19 10:30N 37°09' W 009°40'712.7
2018-Feb-19 09:59N 37°16' W 009°42'712.5
2018-Feb-19 09:28N 37°22' W 009°44'612.7
2018-Feb-19 09:00N 37°28' W 009°45'612.9
2018-Feb-19 08:30N 37°34' W 009°47'712.9
2018-Feb-19 08:00N 37°41' W 009°48'612.9
2018-Feb-19 07:30N 37°47' W 009°50'612.8
2018-Feb-19 07:00N 37°53' W 009°52'712.9
2018-Feb-19 06:30N 37°60' W 009°54'612.9
2018-Feb-19 06:00N 38°06' W 009°56'713.0
2018-Feb-19 05:30N 38°12' W 009°58'713.0
2018-Feb-19 05:00N 38°18' W 009°60'713.0
2018-Feb-19 04:30N 38°25' W 010°01'713.1
2018-Feb-19 04:00N 38°31' W 010°03'713.1
2018-Feb-19 03:30N 38°38' W 010°05'612.7
2018-Feb-19 03:00N 38°44' W 010°06'612.6
2018-Feb-19 02:30N 38°50' W 010°06'612.4
2018-Feb-19 02:00N 38°56' W 010°06'612.6
2018-Feb-19 01:30N 39°03' W 010°06'612.9
2018-Feb-19 01:00N 39°09' W 010°06'612.8
2018-Feb-19 00:30N 39°15' W 010°06'612.6
2018-Feb-19 00:00N 39°22' W 010°06'612.7
2018-Feb-18 23:30N 39°28' W 010°05'612.9
2018-Feb-18 23:00N 39°35' W 010°05'712.9
2018-Feb-18 22:30N 39°41' W 010°05'3812.9
2018-Feb-18 19:32N 40°19' W 010°06'112.7
2018-Feb-18 19:29N 40°20' W 010°07'25413.0
2018-Feb-18 00:00N 44°30' W 009°06'15713.1 290 / 71030.010.8 13.1 9.7 9.1
2018-Feb-17 12:00N 46°48' W 007°18'19012.6 230 / 81027.210.8 11.0 5.0 8.1
2018-Feb-16 20:52N 49°22' W 004°32'3512.2
2018-Feb-16 17:58N 49°39' W 003°45'511.6
2018-Feb-16 17:30N 49°42' W 003°37'712.1
2018-Feb-16 16:55N 49°46' W 003°28'512.4
2018-Feb-16 16:30N 49°49' W 003°21'713.2
2018-Feb-16 15:57N 49°53' W 003°12'613.5
2018-Feb-16 15:30N 49°57' W 003°06'5 9.3
2018-Feb-16 15:01N 49°59' W 002°59'815.3
2018-Feb-16 14:30N 50°02' W 002°48'816.0
2018-Feb-16 14:00N 50°04' W 002°36'2915.6
2018-Feb-16 12:08N 50°15' W 001°54'214.3
2018-Feb-16 12:00N 50°16' W 001°51'913.7
2018-Feb-16 11:22N 50°20' W 001°39'1612.0
2018-Feb-16 10:00N 50°28' W 001°16'710.7
2018-Feb-16 09:19N 50°32' W 001°07'410.3
2018-Feb-16 08:58N 50°34' W 001°02'5 9.8
2018-Feb-16 08:30N 50°38' W 001°03'0 0.1
2018-Feb-16 08:00N 50°38' W 001°03'0 0.0
2018-Feb-16 07:30N 50°38' W 001°03'0 0.0
2018-Feb-16 07:00N 50°38' W 001°03'0 0.1
2018-Feb-16 06:30N 50°38' W 001°03'0 0.0
2018-Feb-16 05:57N 50°38' W 001°03'0 0.0
2018-Feb-16 05:30N 50°38' W 001°03'0 0.3
2018-Feb-16 05:00N 50°38' W 001°03'0 0.1
2018-Feb-16 04:29N 50°38' W 001°03'0 0.0
2018-Feb-16 04:00N 50°38' W 001°03'0 0.0
2018-Feb-16 03:30N 50°38' W 001°03'0 0.0
2018-Feb-16 02:59N 50°38' W 001°03'0 0.0
2018-Feb-16 02:29N 50°38' W 001°03'0 0.0
2018-Feb-16 01:59N 50°38' W 001°03'0 0.0
2018-Feb-16 01:29N 50°38' W 001°03'0 0.0
2018-Feb-16 00:59N 50°38' W 001°03'0 0.0
2018-Feb-16 00:29N 50°38' W 001°03'0 0.3
2018-Feb-15 23:59N 50°38' W 001°03'0 0.4
2018-Feb-15 23:23N 50°38' W 001°03'0 0.2
2018-Feb-15 22:59N 50°38' W 001°03'0 0.1
2018-Feb-15 22:23N 50°38' W 001°03'0 0.0
2018-Feb-15 21:56N 50°38' W 001°03'0 0.0
2018-Feb-15 21:26N 50°38' W 001°03'0 0.0
2018-Feb-15 20:56N 50°38' W 001°03'0 0.1
2018-Feb-15 20:29N 50°38' W 001°03'0 0.0
2018-Feb-15 19:59N 50°38' W 001°03'0 0.0
2018-Feb-15 19:29N 50°38' W 001°03'0 0.0
2018-Feb-15 18:59N 50°38' W 001°03'0 0.0
2018-Feb-15 18:26N 50°38' W 001°03'0 0.0
2018-Feb-15 17:59N 50°38' W 001°03'0 0.0
2018-Feb-15 17:29N 50°38' W 001°03'0 0.1
2018-Feb-15 16:59N 50°38' W 001°03'0 0.4
2018-Feb-15 16:29N 50°38' W 001°03'0 0.1
2018-Feb-15 15:59N 50°38' W 001°03'0 0.0
2018-Feb-15 15:29N 50°38' W 001°03'0 0.0
2018-Feb-15 14:59N 50°38' W 001°03'0 0.0
2018-Feb-15 14:29N 50°38' W 001°03'0 0.0
2018-Feb-15 13:59N 50°38' W 001°03'0 0.2
2018-Feb-15 13:30N 50°38' W 001°03'2 4.6
2018-Feb-15 13:00N 50°39' W 000°60'5 9.7
2018-Feb-15 12:31N 50°43' W 001°02'510.2
2018-Feb-15 12:01N 50°46' W 001°09'510.2
2018-Feb-15 11:30N 50°47' W 001°17'4 8.5
2018-Feb-15 11:00N 50°51' W 001°20'4 8.4
2018-Feb-15 10:30N 50°53' W 001°24'1 2.4
2018-Feb-15 09:58N 50°54' W 001°26'0 0.0
2018-Feb-15 09:28N 50°54' W 001°26'0 0.0
2018-Feb-15 08:58N 50°54' W 001°26'0 0.0
2018-Feb-15 08:28N 50°54' W 001°26'0 0.0
2018-Feb-15 07:58N 50°54' W 001°26'0 0.0
2018-Feb-15 07:28N 50°54' W 001°26'0 0.0
2018-Feb-15 06:55N 50°54' W 001°26'0 0.0
2018-Feb-15 06:25N 50°54' W 001°26'0 0.0
2018-Feb-15 05:58N 50°54' W 001°26'0 0.0
2018-Feb-15 05:28N 50°54' W 001°26'0 0.0
2018-Feb-15 04:58N 50°54' W 001°26'0 0.0
2018-Feb-15 04:28N 50°54' W 001°26'0 0.0
2018-Feb-15 03:58N 50°54' W 001°26'0 0.0
2018-Feb-15 03:28N 50°54' W 001°26'0 0.0
2018-Feb-15 02:46N 50°54' W 001°26'0 0.0
2018-Feb-15 02:28N 50°54' W 001°26'0 0.0
2018-Feb-15 01:58N 50°54' W 001°26'0 0.0
2018-Feb-15 01:28N 50°54' W 001°26'0 0.0
2018-Feb-15 00:46N 50°54' W 001°26'0 0.0
2018-Feb-15 00:28N 50°54' W 001°26'0 0.0
2018-Feb-14 23:58N 50°54' W 001°26'0 0.0
2018-Feb-14 23:28N 50°54' W 001°26'0 0.0
2018-Feb-14 22:58N 50°54' W 001°26'0 0.0
2018-Feb-14 22:28N 50°54' W 001°26'  

Dump ship's entire track history